sensor_id;sensor_type;location;lat;lon;timestamp;P1;durP1;ratioP1;P2;durP2;ratioP2
28009;SDS011;15334;49.494;8.410;2023-05-28T00:00:49;11.10;;;3.92;;
28009;SDS011;15334;49.494;8.410;2023-05-28T00:03:17;10.57;;;4.53;;
28009;SDS011;15334;49.494;8.410;2023-05-28T00:05:47;15.40;;;4.07;;
28009;SDS011;15334;49.494;8.410;2023-05-28T00:08:15;10.02;;;3.78;;
28009;SDS011;15334;49.494;8.410;2023-05-28T00:10:47;11.20;;;3.72;;
28009;SDS011;15334;49.494;8.410;2023-05-28T00:13:16;12.43;;;5.05;;
28009;SDS011;15334;49.494;8.410;2023-05-28T00:15:48;10.73;;;4.60;;
28009;SDS011;15334;49.494;8.410;2023-05-28T00:18:16;13.98;;;4.35;;
28009;SDS011;15334;49.494;8.410;2023-05-28T00:20:45;10.70;;;4.63;;
28009;SDS011;15334;49.494;8.410;2023-05-28T00:23:14;10.63;;;4.55;;
28009;SDS011;15334;49.494;8.410;2023-05-28T00:25:42;11.43;;;4.15;;
28009;SDS011;15334;49.494;8.410;2023-05-28T00:28:11;10.55;;;4.10;;
28009;SDS011;15334;49.494;8.410;2023-05-28T00:30:39;9.88;;;4.50;;
28009;SDS011;15334;49.494;8.410;2023-05-28T00:33:13;9.95;;;4.43;;
28009;SDS011;15334;49.494;8.410;2023-05-28T00:35:41;14.77;;;4.80;;
28009;SDS011;15334;49.494;8.410;2023-05-28T00:38:09;11.05;;;4.63;;
28009;SDS011;15334;49.494;8.410;2023-05-28T00:40:43;14.45;;;5.45;;
28009;SDS011;15334;49.494;8.410;2023-05-28T00:43:11;14.13;;;4.50;;
28009;SDS011;15334;49.494;8.410;2023-05-28T00:45:41;11.38;;;4.18;;
28009;SDS011;15334;49.494;8.410;2023-05-28T00:48:11;10.70;;;4.30;;
28009;SDS011;15334;49.494;8.410;2023-05-28T00:50:39;10.90;;;4.40;;
28009;SDS011;15334;49.494;8.410;2023-05-28T00:53:09;8.23;;;3.65;;
28009;SDS011;15334;49.494;8.410;2023-05-28T00:55:39;8.40;;;4.00;;
28009;SDS011;15334;49.494;8.410;2023-05-28T00:58:10;15.27;;;5.30;;
28009;SDS011;15334;49.494;8.410;2023-05-28T01:00:39;14.27;;;5.03;;
28009;SDS011;15334;49.494;8.410;2023-05-28T01:03:11;9.88;;;4.15;;
28009;SDS011;15334;49.494;8.410;2023-05-28T01:05:42;9.98;;;4.32;;
28009;SDS011;15334;49.494;8.410;2023-05-28T01:10:57;10.35;;;3.85;;
28009;SDS011;15334;49.494;8.410;2023-05-28T01:13:33;11.40;;;4.28;;
28009;SDS011;15334;49.494;8.410;2023-05-28T01:16:13;14.80;;;6.30;;
28009;SDS011;15334;49.494;8.410;2023-05-28T01:18:57;9.85;;;4.60;;
28009;SDS011;15334;49.494;8.410;2023-05-28T01:21:32;10.18;;;3.80;;
28009;SDS011;15334;49.494;8.410;2023-05-28T01:24:08;9.48;;;3.75;;
28009;SDS011;15334;49.494;8.410;2023-05-28T01:26:42;13.50;;;4.85;;
28009;SDS011;15334;49.494;8.410;2023-05-28T01:29:17;8.77;;;3.88;;
28009;SDS011;15334;49.494;8.410;2023-05-28T01:32:02;8.45;;;4.13;;
28009;SDS011;15334;49.494;8.410;2023-05-28T01:34:37;8.70;;;3.90;;
28009;SDS011;15334;49.494;8.410;2023-05-28T01:37:07;8.73;;;4.18;;
28009;SDS011;15334;49.494;8.410;2023-05-28T01:39:44;10.90;;;3.95;;
28009;SDS011;15334;49.494;8.410;2023-05-28T01:42:29;8.85;;;3.80;;
28009;SDS011;15334;49.494;8.410;2023-05-28T01:45:08;13.25;;;4.72;;
28009;SDS011;15334;49.494;8.410;2023-05-28T01:47:38;15.52;;;4.88;;
28009;SDS011;15334;49.494;8.410;2023-05-28T01:50:13;10.32;;;4.28;;
28009;SDS011;15334;49.494;8.410;2023-05-28T01:52:41;14.30;;;4.32;;
28009;SDS011;15334;49.494;8.410;2023-05-28T01:55:12;9.90;;;5.03;;
28009;SDS011;15334;49.494;8.410;2023-05-28T01:57:41;13.38;;;4.40;;
28009;SDS011;15334;49.494;8.410;2023-05-28T02:00:10;13.80;;;4.50;;
28009;SDS011;15334;49.494;8.410;2023-05-28T02:02:41;8.48;;;4.38;;
28009;SDS011;15334;49.494;8.410;2023-05-28T02:05:10;12.60;;;5.32;;
28009;SDS011;15334;49.494;8.410;2023-05-28T02:07:38;12.82;;;5.30;;
28009;SDS011;15334;49.494;8.410;2023-05-28T02:10:11;10.30;;;4.55;;
28009;SDS011;15334;49.494;8.410;2023-05-28T02:12:46;11.73;;;4.75;;
28009;SDS011;15334;49.494;8.410;2023-05-28T02:15:19;13.35;;;4.70;;
28009;SDS011;15334;49.494;8.410;2023-05-28T02:17:50;10.98;;;5.00;;
28009;SDS011;15334;49.494;8.410;2023-05-28T02:20:18;14.25;;;4.47;;
28009;SDS011;15334;49.494;8.410;2023-05-28T02:22:46;13.75;;;4.93;;
28009;SDS011;15334;49.494;8.410;2023-05-28T02:25:16;10.95;;;4.47;;
28009;SDS011;15334;49.494;8.410;2023-05-28T02:27:44;12.73;;;4.97;;
28009;SDS011;15334;49.494;8.410;2023-05-28T02:30:13;9.45;;;4.20;;
28009;SDS011;15334;49.494;8.410;2023-05-28T02:32:41;10.65;;;4.38;;
28009;SDS011;15334;49.494;8.410;2023-05-28T02:35:09;12.18;;;5.18;;
28009;SDS011;15334;49.494;8.410;2023-05-28T02:37:39;10.85;;;4.78;;
28009;SDS011;15334;49.494;8.410;2023-05-28T02:40:07;11.70;;;4.38;;
28009;SDS011;15334;49.494;8.410;2023-05-28T02:42:37;13.95;;;4.38;;
28009;SDS011;15334;49.494;8.410;2023-05-28T02:45:06;11.77;;;5.15;;
28009;SDS011;15334;49.494;8.410;2023-05-28T02:47:34;10.90;;;4.13;;
28009;SDS011;15334;49.494;8.410;2023-05-28T02:50:03;12.35;;;4.43;;
28009;SDS011;15334;49.494;8.410;2023-05-28T02:52:31;9.30;;;3.95;;
28009;SDS011;15334;49.494;8.410;2023-05-28T02:54:59;12.32;;;4.53;;
28009;SDS011;15334;49.494;8.410;2023-05-28T02:57:28;8.52;;;4.35;;
28009;SDS011;15334;49.494;8.410;2023-05-28T02:59:57;13.32;;;4.65;;
28009;SDS011;15334;49.494;8.410;2023-05-28T03:02:26;11.35;;;4.22;;
28009;SDS011;15334;49.494;8.410;2023-05-28T03:04:54;13.80;;;4.47;;
28009;SDS011;15334;49.494;8.410;2023-05-28T03:07:23;9.10;;;4.22;;
28009;SDS011;15334;49.494;8.410;2023-05-28T03:09:51;9.93;;;4.60;;
28009;SDS011;15334;49.494;8.410;2023-05-28T03:12:19;9.52;;;4.43;;
28009;SDS011;15334;49.494;8.410;2023-05-28T03:14:47;10.18;;;4.10;;
28009;SDS011;15334;49.494;8.410;2023-05-28T03:17:16;11.68;;;4.60;;
28009;SDS011;15334;49.494;8.410;2023-05-28T03:19:45;10.27;;;4.20;;
28009;SDS011;15334;49.494;8.410;2023-05-28T03:22:13;14.32;;;4.53;;
28009;SDS011;15334;49.494;8.410;2023-05-28T03:24:41;14.43;;;4.65;;
28009;SDS011;15334;49.494;8.410;2023-05-28T03:27:09;11.40;;;3.80;;
28009;SDS011;15334;49.494;8.410;2023-05-28T03:29:37;13.43;;;4.43;;
28009;SDS011;15334;49.494;8.410;2023-05-28T03:32:05;13.38;;;4.47;;
28009;SDS011;15334;49.494;8.410;2023-05-28T03:34:35;11.52;;;4.05;;
28009;SDS011;15334;49.494;8.410;2023-05-28T03:37:03;9.38;;;4.43;;
28009;SDS011;15334;49.494;8.410;2023-05-28T03:39:31;14.60;;;4.78;;
28009;SDS011;15334;49.494;8.410;2023-05-28T03:41:59;11.32;;;4.35;;
28009;SDS011;15334;49.494;8.410;2023-05-28T03:44:28;12.90;;;4.15;;
28009;SDS011;15334;49.494;8.410;2023-05-28T03:46:56;10.52;;;4.15;;
28009;SDS011;15334;49.494;8.410;2023-05-28T03:49:24;13.00;;;4.22;;
28009;SDS011;15334;49.494;8.410;2023-05-28T03:51:53;15.05;;;5.15;;
28009;SDS011;15334;49.494;8.410;2023-05-28T03:54:21;13.85;;;4.57;;
28009;SDS011;15334;49.494;8.410;2023-05-28T03:56:50;11.50;;;5.43;;
28009;SDS011;15334;49.494;8.410;2023-05-28T03:59:18;14.82;;;5.20;;
28009;SDS011;15334;49.494;8.410;2023-05-28T04:01:46;10.40;;;4.07;;
28009;SDS011;15334;49.494;8.410;2023-05-28T04:04:14;10.05;;;4.40;;
28009;SDS011;15334;49.494;8.410;2023-05-28T04:06:42;13.45;;;4.50;;
28009;SDS011;15334;49.494;8.410;2023-05-28T04:09:12;12.95;;;4.43;;
28009;SDS011;15334;49.494;8.410;2023-05-28T04:11:40;10.00;;;3.90;;
28009;SDS011;15334;49.494;8.410;2023-05-28T04:14:08;10.75;;;4.40;;
28009;SDS011;15334;49.494;8.410;2023-05-28T04:16:36;10.13;;;4.40;;
28009;SDS011;15334;49.494;8.410;2023-05-28T04:19:04;10.27;;;3.75;;
28009;SDS011;15334;49.494;8.410;2023-05-28T04:21:32;14.48;;;4.45;;
28009;SDS011;15334;49.494;8.410;2023-05-28T04:24:00;10.30;;;4.25;;
28009;SDS011;15334;49.494;8.410;2023-05-28T04:26:30;13.50;;;4.40;;
28009;SDS011;15334;49.494;8.410;2023-05-28T04:28:58;13.65;;;4.07;;
28009;SDS011;15334;49.494;8.410;2023-05-28T04:31:26;11.40;;;4.53;;
28009;SDS011;15334;49.494;8.410;2023-05-28T04:33:55;9.40;;;3.60;;
28009;SDS011;15334;49.494;8.410;2023-05-28T04:36:23;10.32;;;3.88;;
28009;SDS011;15334;49.494;8.410;2023-05-28T04:41:27;7.97;;;3.83;;
28009;SDS011;15334;49.494;8.410;2023-05-28T04:43:57;7.43;;;3.95;;
28009;SDS011;15334;49.494;8.410;2023-05-28T04:46:25;11.25;;;4.45;;
28009;SDS011;15334;49.494;8.410;2023-05-28T04:48:56;8.82;;;3.60;;
28009;SDS011;15334;49.494;8.410;2023-05-28T04:51:24;9.43;;;4.38;;
28009;SDS011;15334;49.494;8.410;2023-05-28T04:53:52;8.48;;;4.00;;
28009;SDS011;15334;49.494;8.410;2023-05-28T04:56:20;9.23;;;3.63;;
28009;SDS011;15334;49.494;8.410;2023-05-28T04:58:50;11.50;;;4.05;;
28009;SDS011;15334;49.494;8.410;2023-05-28T05:01:18;11.90;;;4.03;;
28009;SDS011;15334;49.494;8.410;2023-05-28T05:03:46;9.55;;;3.67;;
28009;SDS011;15334;49.494;8.410;2023-05-28T05:06:15;8.80;;;4.40;;
28009;SDS011;15334;49.494;8.410;2023-05-28T05:08:43;7.50;;;3.60;;
28009;SDS011;15334;49.494;8.410;2023-05-28T05:11:14;8.80;;;4.07;;
28009;SDS011;15334;49.494;8.410;2023-05-28T05:13:42;11.00;;;3.67;;
28009;SDS011;15334;49.494;8.410;2023-05-28T05:16:11;9.38;;;3.67;;
28009;SDS011;15334;49.494;8.410;2023-05-28T05:18:40;8.07;;;3.25;;
28009;SDS011;15334;49.494;8.410;2023-05-28T05:21:08;8.00;;;3.58;;
28009;SDS011;15334;49.494;8.410;2023-05-28T05:23:39;10.50;;;3.97;;
28009;SDS011;15334;49.494;8.410;2023-05-28T05:26:07;7.10;;;3.42;;
28009;SDS011;15334;49.494;8.410;2023-05-28T05:28:38;7.18;;;3.78;;
28009;SDS011;15334;49.494;8.410;2023-05-28T05:31:08;6.97;;;3.72;;
28009;SDS011;15334;49.494;8.410;2023-05-28T05:33:40;9.02;;;4.63;;
28009;SDS011;15334;49.494;8.410;2023-05-28T05:36:08;8.18;;;3.38;;
28009;SDS011;15334;49.494;8.410;2023-05-28T05:38:37;11.68;;;4.13;;
28009;SDS011;15334;49.494;8.410;2023-05-28T05:41:06;11.75;;;3.85;;
28009;SDS011;15334;49.494;8.410;2023-05-28T05:43:34;7.63;;;3.50;;
28009;SDS011;15334;49.494;8.410;2023-05-28T05:46:02;8.18;;;3.55;;
28009;SDS011;15334;49.494;8.410;2023-05-28T05:48:31;7.72;;;3.83;;
28009;SDS011;15334;49.494;8.410;2023-05-28T05:51:00;10.13;;;3.83;;
28009;SDS011;15334;49.494;8.410;2023-05-28T05:53:29;11.15;;;3.90;;
28009;SDS011;15334;49.494;8.410;2023-05-28T05:55:57;7.75;;;3.45;;
28009;SDS011;15334;49.494;8.410;2023-05-28T05:58:25;10.02;;;4.78;;
28009;SDS011;15334;49.494;8.410;2023-05-28T06:00:53;12.02;;;4.35;;
28009;SDS011;15334;49.494;8.410;2023-05-28T06:03:21;7.18;;;3.90;;
28009;SDS011;15334;49.494;8.410;2023-05-28T06:05:50;11.82;;;3.70;;
28009;SDS011;15334;49.494;8.410;2023-05-28T06:08:19;13.30;;;3.67;;
28009;SDS011;15334;49.494;8.410;2023-05-28T06:10:47;11.25;;;4.00;;
28009;SDS011;15334;49.494;8.410;2023-05-28T06:13:15;9.18;;;3.58;;
28009;SDS011;15334;49.494;8.410;2023-05-28T06:15:44;9.15;;;3.88;;
28009;SDS011;15334;49.494;8.410;2023-05-28T06:18:12;9.65;;;3.95;;
28009;SDS011;15334;49.494;8.410;2023-05-28T06:20:40;10.82;;;4.03;;
28009;SDS011;15334;49.494;8.410;2023-05-28T06:23:09;7.22;;;3.70;;
28009;SDS011;15334;49.494;8.410;2023-05-28T06:25:38;10.68;;;3.72;;
28009;SDS011;15334;49.494;8.410;2023-05-28T06:28:06;8.90;;;3.70;;
28009;SDS011;15334;49.494;8.410;2023-05-28T06:30:34;9.85;;;3.83;;
28009;SDS011;15334;49.494;8.410;2023-05-28T06:33:03;10.32;;;4.15;;
28009;SDS011;15334;49.494;8.410;2023-05-28T06:35:31;8.80;;;3.30;;
28009;SDS011;15334;49.494;8.410;2023-05-28T06:37:59;8.88;;;4.00;;
28009;SDS011;15334;49.494;8.410;2023-05-28T06:40:27;10.38;;;3.50;;
28009;SDS011;15334;49.494;8.410;2023-05-28T06:42:57;9.85;;;3.88;;
28009;SDS011;15334;49.494;8.410;2023-05-28T06:45:27;10.13;;;4.00;;
28009;SDS011;15334;49.494;8.410;2023-05-28T06:47:59;11.32;;;5.18;;
28009;SDS011;15334;49.494;8.410;2023-05-28T06:50:27;10.07;;;4.15;;
28009;SDS011;15334;49.494;8.410;2023-05-28T06:52:56;12.02;;;3.97;;
28009;SDS011;15334;49.494;8.410;2023-05-28T06:55:25;9.55;;;3.40;;
28009;SDS011;15334;49.494;8.410;2023-05-28T06:57:54;8.38;;;3.45;;
28009;SDS011;15334;49.494;8.410;2023-05-28T07:00:24;10.52;;;3.95;;
28009;SDS011;15334;49.494;8.410;2023-05-28T07:02:53;9.52;;;3.33;;
28009;SDS011;15334;49.494;8.410;2023-05-28T07:05:21;12.35;;;3.80;;
28009;SDS011;15334;49.494;8.410;2023-05-28T07:07:49;7.88;;;3.80;;
28009;SDS011;15334;49.494;8.410;2023-05-28T07:10:21;13.37;;;4.83;;
28009;SDS011;15334;49.494;8.410;2023-05-28T07:13:08;8.93;;;3.78;;
28009;SDS011;15334;49.494;8.410;2023-05-28T07:15:40;7.57;;;3.55;;
28009;SDS011;15334;49.494;8.410;2023-05-28T07:18:30;9.75;;;4.07;;
28009;SDS011;15334;49.494;8.410;2023-05-28T07:21:11;11.20;;;4.57;;
28009;SDS011;15334;49.494;8.410;2023-05-28T07:23:43;9.80;;;4.00;;
28009;SDS011;15334;49.494;8.410;2023-05-28T07:26:23;11.73;;;3.70;;
28009;SDS011;15334;49.494;8.410;2023-05-28T07:31:25;9.43;;;4.40;;
28009;SDS011;15334;49.494;8.410;2023-05-28T07:33:58;8.07;;;3.40;;
28009;SDS011;15334;49.494;8.410;2023-05-28T07:36:45;8.90;;;3.75;;
28009;SDS011;15334;49.494;8.410;2023-05-28T07:39:34;12.52;;;4.38;;
28009;SDS011;15334;49.494;8.410;2023-05-28T07:42:13;8.23;;;3.88;;
28009;SDS011;15334;49.494;8.410;2023-05-28T07:44:46;8.98;;;4.35;;
28009;SDS011;15334;49.494;8.410;2023-05-28T07:47:45;8.52;;;3.55;;
28009;SDS011;15334;49.494;8.410;2023-05-28T07:50:32;11.35;;;4.30;;
28009;SDS011;15334;49.494;8.410;2023-05-28T07:53:02;8.55;;;3.42;;
28009;SDS011;15334;49.494;8.410;2023-05-28T07:55:41;8.65;;;3.60;;
28009;SDS011;15334;49.494;8.410;2023-05-28T07:58:09;15.13;;;3.72;;
28009;SDS011;15334;49.494;8.410;2023-05-28T08:00:41;8.37;;;3.43;;
28009;SDS011;15334;49.494;8.410;2023-05-28T08:06:08;9.55;;;3.28;;
28009;SDS011;15334;49.494;8.410;2023-05-28T08:08:52;8.65;;;4.13;;
28009;SDS011;15334;49.494;8.410;2023-05-28T08:11:49;6.68;;;3.67;;
28009;SDS011;15334;49.494;8.410;2023-05-28T08:14:38;9.13;;;3.80;;
28009;SDS011;15334;49.494;8.410;2023-05-28T08:17:29;9.95;;;3.50;;
28009;SDS011;15334;49.494;8.410;2023-05-28T08:23:42;10.60;;;3.03;;
28009;SDS011;15334;49.494;8.410;2023-05-28T08:26:15;7.75;;;3.00;;
28009;SDS011;15334;49.494;8.410;2023-05-28T08:28:43;7.88;;;3.45;;
28009;SDS011;15334;49.494;8.410;2023-05-28T08:31:11;6.82;;;3.67;;
28009;SDS011;15334;49.494;8.410;2023-05-28T08:33:39;6.25;;;2.95;;
28009;SDS011;15334;49.494;8.410;2023-05-28T08:36:09;9.55;;;3.50;;
28009;SDS011;15334;49.494;8.410;2023-05-28T08:38:38;9.95;;;3.25;;
28009;SDS011;15334;49.494;8.410;2023-05-28T08:41:07;9.82;;;3.20;;
28009;SDS011;15334;49.494;8.410;2023-05-28T08:43:36;9.18;;;4.13;;
28009;SDS011;15334;49.494;8.410;2023-05-28T08:46:06;10.13;;;3.50;;
28009;SDS011;15334;49.494;8.410;2023-05-28T08:48:35;11.02;;;3.83;;
28009;SDS011;15334;49.494;8.410;2023-05-28T08:51:04;12.02;;;3.63;;
28009;SDS011;15334;49.494;8.410;2023-05-28T08:53:38;7.80;;;3.35;;
28009;SDS011;15334;49.494;8.410;2023-05-28T08:56:07;7.10;;;3.05;;
28009;SDS011;15334;49.494;8.410;2023-05-28T08:58:37;11.15;;;3.75;;
28009;SDS011;15334;49.494;8.410;2023-05-28T09:01:06;11.68;;;3.60;;
28009;SDS011;15334;49.494;8.410;2023-05-28T09:03:38;10.50;;;3.55;;
28009;SDS011;15334;49.494;8.410;2023-05-28T09:08:37;10.15;;;3.05;;
28009;SDS011;15334;49.494;8.410;2023-05-28T09:11:08;8.70;;;4.07;;
28009;SDS011;15334;49.494;8.410;2023-05-28T09:13:39;8.35;;;3.35;;
28009;SDS011;15334;49.494;8.410;2023-05-28T09:16:09;8.98;;;3.65;;
28009;SDS011;15334;49.494;8.410;2023-05-28T09:18:41;9.25;;;3.70;;
28009;SDS011;15334;49.494;8.410;2023-05-28T09:21:08;9.80;;;3.60;;
28009;SDS011;15334;49.494;8.410;2023-05-28T09:23:39;8.35;;;3.90;;
28009;SDS011;15334;49.494;8.410;2023-05-28T09:26:08;7.15;;;3.03;;
28009;SDS011;15334;49.494;8.410;2023-05-28T09:28:39;8.18;;;3.33;;
28009;SDS011;15334;49.494;8.410;2023-05-28T09:31:10;11.95;;;3.78;;
28009;SDS011;15334;49.494;8.410;2023-05-28T09:33:40;11.00;;;3.72;;
28009;SDS011;15334;49.494;8.410;2023-05-28T09:36:11;11.18;;;3.83;;
28009;SDS011;15334;49.494;8.410;2023-05-28T09:38:41;10.35;;;3.28;;
28009;SDS011;15334;49.494;8.410;2023-05-28T09:41:16;13.60;;;3.58;;
28009;SDS011;15334;49.494;8.410;2023-05-28T09:43:55;6.78;;;2.95;;
28009;SDS011;15334;49.494;8.410;2023-05-28T09:46:28;7.65;;;3.17;;
28009;SDS011;15334;49.494;8.410;2023-05-28T09:48:58;9.90;;;3.25;;
28009;SDS011;15334;49.494;8.410;2023-05-28T09:51:28;6.55;;;3.15;;
28009;SDS011;15334;49.494;8.410;2023-05-28T09:54:01;8.55;;;3.47;;
28009;SDS011;15334;49.494;8.410;2023-05-28T09:56:33;7.57;;;3.03;;
28009;SDS011;15334;49.494;8.410;2023-05-28T09:59:05;10.98;;;3.17;;
28009;SDS011;15334;49.494;8.410;2023-05-28T10:01:36;7.18;;;2.55;;
28009;SDS011;15334;49.494;8.410;2023-05-28T10:04:08;9.73;;;3.58;;
28009;SDS011;15334;49.494;8.410;2023-05-28T10:06:38;7.32;;;3.22;;
28009;SDS011;15334;49.494;8.410;2023-05-28T10:09:09;10.68;;;3.75;;
28009;SDS011;15334;49.494;8.410;2023-05-28T10:11:42;8.07;;;3.65;;
28009;SDS011;15334;49.494;8.410;2023-05-28T10:16:41;11.00;;;3.30;;
28009;SDS011;15334;49.494;8.410;2023-05-28T10:19:10;6.15;;;2.83;;
28009;SDS011;15334;49.494;8.410;2023-05-28T10:21:38;11.68;;;3.97;;
28009;SDS011;15334;49.494;8.410;2023-05-28T10:24:06;9.10;;;3.40;;
28009;SDS011;15334;49.494;8.410;2023-05-28T10:26:36;7.95;;;3.08;;
28009;SDS011;15334;49.494;8.410;2023-05-28T10:29:05;8.48;;;3.45;;
28009;SDS011;15334;49.494;8.410;2023-05-28T10:31:34;7.65;;;3.20;;
28009;SDS011;15334;49.494;8.410;2023-05-28T10:34:04;9.23;;;3.38;;
28009;SDS011;15334;49.494;8.410;2023-05-28T10:36:48;7.10;;;2.92;;
28009;SDS011;15334;49.494;8.410;2023-05-28T10:39:37;6.53;;;3.03;;
28009;SDS011;15334;49.494;8.410;2023-05-28T10:42:06;10.80;;;3.25;;
28009;SDS011;15334;49.494;8.410;2023-05-28T10:44:48;8.07;;;3.35;;
28009;SDS011;15334;49.494;8.410;2023-05-28T10:47:31;5.85;;;2.95;;
28009;SDS011;15334;49.494;8.410;2023-05-28T10:50:00;6.55;;;2.92;;
28009;SDS011;15334;49.494;8.410;2023-05-28T10:52:41;8.05;;;3.13;;
28009;SDS011;15334;49.494;8.410;2023-05-28T10:55:12;6.65;;;3.42;;
28009;SDS011;15334;49.494;8.410;2023-05-28T10:57:41;5.88;;;2.85;;
28009;SDS011;15334;49.494;8.410;2023-05-28T11:00:11;6.88;;;3.08;;
28009;SDS011;15334;49.494;8.410;2023-05-28T11:02:42;8.70;;;2.95;;
28009;SDS011;15334;49.494;8.410;2023-05-28T11:05:11;7.05;;;2.97;;
28009;SDS011;15334;49.494;8.410;2023-05-28T11:07:40;8.35;;;3.30;;
28009;SDS011;15334;49.494;8.410;2023-05-28T11:10:10;7.10;;;2.88;;
28009;SDS011;15334;49.494;8.410;2023-05-28T11:12:43;5.53;;;3.00;;
28009;SDS011;15334;49.494;8.410;2023-05-28T11:15:12;10.10;;;3.78;;
28009;SDS011;15334;49.494;8.410;2023-05-28T11:17:41;9.68;;;3.38;;
28009;SDS011;15334;49.494;8.410;2023-05-28T11:20:15;8.00;;;2.72;;
28009;SDS011;15334;49.494;8.410;2023-05-28T11:22:44;8.50;;;3.13;;
28009;SDS011;15334;49.494;8.410;2023-05-28T11:25:13;6.50;;;2.72;;
28009;SDS011;15334;49.494;8.410;2023-05-28T11:27:41;10.40;;;3.47;;
28009;SDS011;15334;49.494;8.410;2023-05-28T11:30:12;5.32;;;2.50;;
28009;SDS011;15334;49.494;8.410;2023-05-28T11:32:42;9.57;;;2.53;;
28009;SDS011;15334;49.494;8.410;2023-05-28T11:35:12;10.77;;;3.33;;
28009;SDS011;15334;49.494;8.410;2023-05-28T11:37:43;9.32;;;3.00;;
28009;SDS011;15334;49.494;8.410;2023-05-28T11:40:12;7.72;;;3.30;;
28009;SDS011;15334;49.494;8.410;2023-05-28T11:42:43;5.03;;;2.65;;
28009;SDS011;15334;49.494;8.410;2023-05-28T11:45:12;6.00;;;2.92;;
28009;SDS011;15334;49.494;8.410;2023-05-28T11:47:40;8.13;;;2.97;;
28009;SDS011;15334;49.494;8.410;2023-05-28T11:50:10;7.50;;;3.17;;
28009;SDS011;15334;49.494;8.410;2023-05-28T11:52:41;5.72;;;3.28;;
28009;SDS011;15334;49.494;8.410;2023-05-28T11:55:10;7.38;;;3.00;;
28009;SDS011;15334;49.494;8.410;2023-05-28T11:57:49;7.88;;;2.80;;
28009;SDS011;15334;49.494;8.410;2023-05-28T12:02:58;6.50;;;2.80;;
28009;SDS011;15334;49.494;8.410;2023-05-28T12:05:27;7.63;;;2.95;;
28009;SDS011;15334;49.494;8.410;2023-05-28T12:08:03;7.00;;;2.88;;
28009;SDS011;15334;49.494;8.410;2023-05-28T12:10:31;8.07;;;2.60;;
28009;SDS011;15334;49.494;8.410;2023-05-28T12:13:01;7.32;;;2.83;;
28009;SDS011;15334;49.494;8.410;2023-05-28T12:15:31;5.68;;;2.97;;
28009;SDS011;15334;49.494;8.410;2023-05-28T12:18:00;6.57;;;2.97;;
28009;SDS011;15334;49.494;8.410;2023-05-28T12:20:30;7.22;;;2.92;;
28009;SDS011;15334;49.494;8.410;2023-05-28T12:23:00;7.75;;;2.78;;
28009;SDS011;15334;49.494;8.410;2023-05-28T12:25:46;6.40;;;2.80;;
28009;SDS011;15334;49.494;8.410;2023-05-28T12:28:17;8.25;;;2.88;;
28009;SDS011;15334;49.494;8.410;2023-05-28T12:30:47;6.72;;;3.58;;
28009;SDS011;15334;49.494;8.410;2023-05-28T12:33:17;6.15;;;3.10;;
28009;SDS011;15334;49.494;8.410;2023-05-28T12:35:45;5.45;;;3.05;;
28009;SDS011;15334;49.494;8.410;2023-05-28T12:38:14;7.05;;;2.80;;
28009;SDS011;15334;49.494;8.410;2023-05-28T12:40:42;7.57;;;3.03;;
28009;SDS011;15334;49.494;8.410;2023-05-28T12:43:10;5.72;;;2.75;;
28009;SDS011;15334;49.494;8.410;2023-05-28T12:45:40;6.35;;;2.67;;
28009;SDS011;15334;49.494;8.410;2023-05-28T12:48:08;7.38;;;3.22;;
28009;SDS011;15334;49.494;8.410;2023-05-28T12:50:36;6.10;;;2.90;;
28009;SDS011;15334;49.494;8.410;2023-05-28T12:53:04;7.30;;;2.85;;
28009;SDS011;15334;49.494;8.410;2023-05-28T12:55:32;6.35;;;2.95;;
28009;SDS011;15334;49.494;8.410;2023-05-28T12:58:00;6.43;;;2.67;;
28009;SDS011;15334;49.494;8.410;2023-05-28T13:00:28;6.53;;;2.85;;
28009;SDS011;15334;49.494;8.410;2023-05-28T13:02:58;8.50;;;3.40;;
28009;SDS011;15334;49.494;8.410;2023-05-28T13:05:29;8.50;;;3.30;;
28009;SDS011;15334;49.494;8.410;2023-05-28T13:07:59;7.88;;;2.90;;
28009;SDS011;15334;49.494;8.410;2023-05-28T13:10:28;7.13;;;2.92;;
28009;SDS011;15334;49.494;8.410;2023-05-28T13:12:58;8.60;;;2.90;;
28009;SDS011;15334;49.494;8.410;2023-05-28T13:15:26;6.72;;;2.58;;
28009;SDS011;15334;49.494;8.410;2023-05-28T13:17:56;5.93;;;2.80;;
28009;SDS011;15334;49.494;8.410;2023-05-28T13:20:26;7.40;;;3.15;;
28009;SDS011;15334;49.494;8.410;2023-05-28T13:22:58;7.82;;;3.30;;
28009;SDS011;15334;49.494;8.410;2023-05-28T13:25:26;6.32;;;2.75;;
28009;SDS011;15334;49.494;8.410;2023-05-28T13:27:54;6.30;;;3.03;;
28009;SDS011;15334;49.494;8.410;2023-05-28T13:30:22;7.43;;;3.00;;
28009;SDS011;15334;49.494;8.410;2023-05-28T13:32:51;6.97;;;3.00;;
28009;SDS011;15334;49.494;8.410;2023-05-28T13:35:20;6.90;;;3.10;;
28009;SDS011;15334;49.494;8.410;2023-05-28T13:37:49;6.88;;;3.35;;
28009;SDS011;15334;49.494;8.410;2023-05-28T13:40:17;7.82;;;3.47;;
28009;SDS011;15334;49.494;8.410;2023-05-28T13:42:47;5.40;;;2.83;;
28009;SDS011;15334;49.494;8.410;2023-05-28T13:45:16;8.18;;;3.05;;
28009;SDS011;15334;49.494;8.410;2023-05-28T13:47:44;6.60;;;3.05;;
28009;SDS011;15334;49.494;8.410;2023-05-28T13:50:12;10.02;;;3.42;;
28009;SDS011;15334;49.494;8.410;2023-05-28T13:52:43;7.45;;;3.45;;
28009;SDS011;15334;49.494;8.410;2023-05-28T13:57:39;5.90;;;2.83;;
28009;SDS011;15334;49.494;8.410;2023-05-28T14:00:08;5.13;;;2.60;;
28009;SDS011;15334;49.494;8.410;2023-05-28T14:02:43;6.78;;;2.70;;
28009;SDS011;15334;49.494;8.410;2023-05-28T14:05:11;6.95;;;2.83;;
28009;SDS011;15334;49.494;8.410;2023-05-28T14:07:41;7.28;;;3.00;;
28009;SDS011;15334;49.494;8.410;2023-05-28T14:10:11;6.80;;;3.70;;
28009;SDS011;15334;49.494;8.410;2023-05-28T14:12:39;8.80;;;2.97;;
28009;SDS011;15334;49.494;8.410;2023-05-28T14:15:07;6.93;;;3.78;;
28009;SDS011;15334;49.494;8.410;2023-05-28T14:17:36;7.60;;;3.70;;
28009;SDS011;15334;49.494;8.410;2023-05-28T14:20:04;7.88;;;2.80;;
28009;SDS011;15334;49.494;8.410;2023-05-28T14:22:32;7.55;;;3.13;;
28009;SDS011;15334;49.494;8.410;2023-05-28T14:25:02;9.00;;;3.40;;
28009;SDS011;15334;49.494;8.410;2023-05-28T14:27:31;8.85;;;3.28;;
28009;SDS011;15334;49.494;8.410;2023-05-28T14:29:59;7.95;;;3.25;;
28009;SDS011;15334;49.494;8.410;2023-05-28T14:32:27;6.25;;;3.13;;
28009;SDS011;15334;49.494;8.410;2023-05-28T14:34:55;7.43;;;3.30;;
28009;SDS011;15334;49.494;8.410;2023-05-28T14:37:23;7.95;;;3.67;;
28009;SDS011;15334;49.494;8.410;2023-05-28T14:39:51;7.60;;;3.42;;
28009;SDS011;15334;49.494;8.410;2023-05-28T14:42:20;8.40;;;3.30;;
28009;SDS011;15334;49.494;8.410;2023-05-28T14:44:48;9.25;;;3.67;;
28009;SDS011;15334;49.494;8.410;2023-05-28T14:47:26;9.48;;;3.60;;
28009;SDS011;15334;49.494;8.410;2023-05-28T14:49:56;7.13;;;3.47;;
28009;SDS011;15334;49.494;8.410;2023-05-28T14:52:25;6.60;;;3.20;;
28009;SDS011;15334;49.494;8.410;2023-05-28T14:54:54;8.98;;;3.47;;
28009;SDS011;15334;49.494;8.410;2023-05-28T14:57:25;7.18;;;3.67;;
28009;SDS011;15334;49.494;8.410;2023-05-28T14:59:58;9.27;;;3.67;;
28009;SDS011;15334;49.494;8.410;2023-05-28T15:02:28;7.85;;;3.85;;
28009;SDS011;15334;49.494;8.410;2023-05-28T15:04:56;7.75;;;3.15;;
28009;SDS011;15334;49.494;8.410;2023-05-28T15:07:25;7.95;;;3.72;;
28009;SDS011;15334;49.494;8.410;2023-05-28T15:09:53;9.35;;;3.97;;
28009;SDS011;15334;49.494;8.410;2023-05-28T15:12:21;7.03;;;3.80;;
28009;SDS011;15334;49.494;8.410;2023-05-28T15:14:52;9.68;;;3.72;;
28009;SDS011;15334;49.494;8.410;2023-05-28T15:17:20;9.45;;;4.00;;
28009;SDS011;15334;49.494;8.410;2023-05-28T15:19:49;9.18;;;3.50;;
28009;SDS011;15334;49.494;8.410;2023-05-28T15:22:17;7.15;;;3.58;;
28009;SDS011;15334;49.494;8.410;2023-05-28T15:24:49;7.85;;;3.53;;
28009;SDS011;15334;49.494;8.410;2023-05-28T15:27:17;6.30;;;3.63;;